Home   Weather   USA   Neenah   Past weeks
Flag for USA

Past Weather in Neenah, Wisconsin, USA — Yesterday and Last 2 Weeks

Currently: 64 °F. Passing clouds. (Weather station: Appleton / Outagamie, USA). See more current weather

Past Weather in Neenah — Graph

°F

Neenah Temperature Yesterday

Maximum temperature yesterday: 61 °F (at 12:45 pm)
Minimum temperature yesterday: 43 °F (at 11:15 pm)
Average temperature yesterday: 51 °F

High & Low Weather Summary for the Past Weeks

 TemperatureHumidityPressure
High70 °F (Apr 13, 4:45 pm)100% (Mar 31, 4:35 am)30.29 "Hg (Mar 31, 4:35 am)
Low32 °F (Mar 31, 4:35 am)26% (Apr 10, 4:45 pm)29.18 "Hg (Apr 3, 3:35 am)
Average43 °F73%29.84 "Hg
* Reported Mar 29 7:45 pm — Apr 13 7:45 pm, Neenah. Weather by CustomWeather, © 2024

Note: Actual official high and low records may vary slightly from our data, if they occured in-between our weather recording intervals... More about our weather records

Neenah Weather History for the Previous 24 Hours

Scroll right to see more
 ConditionsComfort  
Time TempWeatherWind HumidityBarometerVisibility
7:45 pm
Sat, Apr 13
64 °FPassing clouds.10 mph40%29.75 "Hg10 mi
6:45 pm68 °FScattered clouds.14 mph33%29.76 "Hg10 mi
5:45 pm70 °FScattered clouds.21 mph31%29.79 "Hg10 mi
4:45 pm70 °FScattered clouds.18 mph29%29.83 "Hg10 mi
3:45 pm66 °FScattered clouds.10 mph35%29.87 "Hg10 mi
2:45 pm64 °FScattered clouds.7 mph34%29.92 "Hg10 mi
1:45 pm63 °FSunny.12 mph34%29.95 "Hg10 mi
12:45 pm59 °FPassing clouds.10 mph39%29.99 "Hg10 mi
11:45 am57 °FSunny.12 mph41%30.03 "Hg10 mi
10:45 am54 °FSunny.6 mph44%30.04 "Hg10 mi
9:45 am50 °FSunny.6 mph47%30.05 "Hg10 mi
8:45 am46 °FSunny.5 mph57%30.07 "Hg10 mi
7:45 am41 °FSunny.8 mph70%30.07 "Hg10 mi
6:45 am37 °FSunny.8 mph75%30.05 "Hg10 mi
5:45 am37 °FClear.7 mph70%30.05 "Hg10 mi
5:30 am37 °FClear.9 mph75%30.04 "Hg10 mi
5:15 am37 °FClear.8 mph75%30.04 "Hg10 mi
4:55 am37 °FClear.8 mph75%30.03 "Hg10 mi
4:35 am37 °FClear.8 mph75%30.03 "Hg10 mi
4:15 am36 °FClear.9 mph81%30.02 "Hg10 mi
3:35 am37 °FClear.9 mph75%30.02 "Hg10 mi
2:55 am39 °FClear.8 mph75%30.00 "Hg10 mi
2:15 am41 °FClear.8 mph70%30.00 "Hg10 mi
1:55 am41 °FClear.9 mph70%30.00 "Hg10 mi
1:35 am41 °FClear.9 mph70%29.99 "Hg10 mi
1:15 am41 °FClear.9 mph70%29.99 "Hg10 mi
12:55 am39 °FClear.7 mph75%29.99 "Hg10 mi
12:35 am43 °FClear.8 mph66%29.98 "Hg10 mi
12:15 am41 °FClear.8 mph70%29.97 "Hg10 mi
11:55 pm
Fri, Apr 12
45 °FClear.7 mph61%29.97 "Hg10 mi
11:35 pm43 °FClear.6 mph66%29.98 "Hg10 mi
11:15 pm43 °FClear.7 mph66%29.97 "Hg10 mi
10:55 pm45 °FClear.7 mph61%29.97 "Hg10 mi
9:45 pm48 °FClear.7 mph58%29.96 "Hg10 mi
Weather by CustomWeather, © 2024

See weather overview